Main page
METAR-TAF:

METAR-TAF

Airports :

Cognac, France

Cognac – Châteaubernard Air Base

latitude: 45-40N, longitude: 000-19W, elevation: 30 m

Current weather observation

The report was made 8 minutes ago, at 04:30 UTC
Wind 1 kt from the East
Temperature 5°C
Humidity 93%
Pressure 1010 hPa
Visibility 10 km or more
no clouds below 1500 m and no cumulonimbus

METAR: LFBG 270430Z AUTO 09001KT CAVOK 05/04 Q1010

Time: 06:38 (04:38 UTC)

Forecast

The report was made 14 hours and 38 minutes ago, at 14:00 UTC
Forecast valid from 26 at 15 UTC to 27 at 15 UTC
Wind 3 kt from variable directions
Visibility 10 km or more
no clouds below 1500 m and no cumulonimbus

TAF: LFBG 261400Z 2615/2715 VRB03KT CAVOK

Weather observations and forecasts of more than 4000 airports (METAR and TAF reports).

The available stations are represented by yellow and red dots on the map.

Hover mouse over dot to see the name of the station.

Then click to see weather observations and forecasts.

To change the map : click on the green buttons with a black cross to zoom in, on the green button with a dash to zoom out, or on the green arrows for adjacent maps.


METAR-TAF: